Opelika, AL

1:57 PM CST on November 19, 2017 (GMT -0600)
Northside Historic District | | Change Station
Active Advisory: Freeze Warning

Elev 725 ft 32.65 °N, 85.38 °W | Updated 31 seconds ago

Clear
Clear
56.3 °F
Feels Like 56.3 °F
N
2.9
Wind Variable Wind from ESE
Gusts 2.9 mph

Today
High -- | Low -- °F
--% Chance of Precip.
Yesterday
High -- | Low -- °F
Precip. -- in
Pressure 30.12 in
Visibility 10.0 miles
Clouds Clear
Dew Point 30 °F
Humidity 36%
Rainfall 0.00 in
Snow Depth Not available.
6:15 AM 4:38 PM
New Moon, 2% visible
METAR KAUO 191856Z AUTO 32014G17KT 10SM CLR 13/01 A3005 RMK AO2 SLP198 T01330006
Pressure 30.12 in
Visibility 10.0 miles
Clouds Clear
Dew Point 30 °F
Humidity 36%
Rainfall 0.00 in
Snow Depth Not available.
6:15 AM 4:38 PM
New Moon, 2% visible
METAR KAUO 191856Z AUTO 32014G17KT 10SM CLR 13/01 A3005 RMK AO2 SLP198 T01330006

Get Your Daily Forecast Email!

Thanks for signing up!

Be on the lookout for a verification email in your inbox.

You'll start receiving severe weather alerts in your inbox..

×

10-Day Weather Forecast

Almanac

Astronomy

Nov. 19, 2017 Rise Set
Actual Time
Civil Twilight
Nautical Twilight
Astronomical Twilight
Moon
Length of Visible Light
Length of Day
Tomorrow will be .
, % of the Moon is Illuminated

Today's Extremes

State Highs State Lows

Community

WunderPhotos

Category 6

Welcome to Category 6. This is the collective home for Weather Underground's featured writeups by Dr. Jeff Masters (right), Bob Henson (left), Chris Burt, and other regular contributors.

Nearby

Air Quality

  Air Quality AQ Index Pollutant
Not available.

Snow Depth

Station Depth Elevation

Earthquake Activity

City Distance Mag. Time & Date
Minimum magnitude displayed is 2.5.

Coastal Water Temperatures

Place Temperature

Stations

Nearby Weather Stations

Station Location Temp. Windchill Dew Point Humidity Wind Precip. Elev Updated Type
                   

Watches & Warnings

Freeze Warning
Issued: 12:15 PM CST Nov. 19, 2017 – National Weather Service

... Freeze warning remains in effect from 2 am to 8 am CST
Monday...

* temperature... temperatures will drop to near or just below
freezing by 2 am Monday and last until 8 am Monday morning,
with lows 30 to 32 degrees.

* Impacts... temperatures at or below freezing could damage
sensitive plants and vegetation.

Precautionary/preparedness actions...

A freeze warning means sub-freezing temperatures are imminent or
highly likely. Temperatures at or below freezing could damage
sensitive plants and vegetation.